createdAt,value
2023-03-27T00:02:08.603Z,4.39
2023-03-27T00:04:35.339Z,4.40
2023-03-27T00:07:02.039Z,4.40
2023-03-27T00:09:29.728Z,4.42
2023-03-27T00:11:56.673Z,4.44
2023-03-27T00:14:23.997Z,4.43
2023-03-27T00:16:51.266Z,4.43
2023-03-27T00:19:19.141Z,4.45
2023-03-27T00:21:45.995Z,4.46
2023-03-27T00:24:12.610Z,4.48
2023-03-27T00:26:40.669Z,4.48
2023-03-27T00:29:07.697Z,4.50
2023-03-27T00:31:34.430Z,4.47
2023-03-27T00:34:01.785Z,4.47
2023-03-27T00:36:28.402Z,4.47
2023-03-27T00:38:55.301Z,4.46
2023-03-27T00:41:22.558Z,4.47
2023-03-27T00:43:53.377Z,4.47
2023-03-27T00:46:44.192Z,4.49
2023-03-27T00:49:15.130Z,4.49
2023-03-27T00:51:46.749Z,4.48
2023-03-27T00:54:21.865Z,4.46
2023-03-27T00:56:49.900Z,4.47
2023-03-27T00:59:23.208Z,4.47
2023-03-27T01:01:50.701Z,4.43
2023-03-27T01:04:21.333Z,4.42
2023-03-27T01:06:52.486Z,4.42
2023-03-27T01:09:20.180Z,4.41
2023-03-27T01:12:06.063Z,4.39
2023-03-27T01:14:57.253Z,4.34
2023-03-27T01:17:42.077Z,4.31
2023-03-27T01:20:45.461Z,4.29
2023-03-27T01:23:59.059Z,4.27
2023-03-27T01:27:08.057Z,4.26
2023-03-27T01:29:46.840Z,4.25
2023-03-27T01:32:44.654Z,4.29
2023-03-27T01:35:42.145Z,4.29
2023-03-27T01:38:39.900Z,4.28
2023-03-27T01:41:16.456Z,4.28
2023-03-27T01:43:57.333Z,4.25
2023-03-27T01:46:28.573Z,4.27
2023-03-27T01:49:59.619Z,4.27
2023-03-27T01:52:32.913Z,4.23
2023-03-27T01:55:09.506Z,4.23
2023-03-27T01:57:48.873Z,4.19
2023-03-27T02:00:22.520Z,4.18
2023-03-27T02:02:52.249Z,4.17
2023-03-27T02:05:28.342Z,4.17
2023-03-27T02:08:17.093Z,4.17
2023-03-27T02:10:52.410Z,4.15
2023-03-27T02:13:43.659Z,4.11
2023-03-27T02:16:17.732Z,4.05
2023-03-27T02:18:54.263Z,3.98
2023-03-27T02:21:23.542Z,3.91
2023-03-27T02:23:50.292Z,3.84
2023-03-27T02:26:17.783Z,3.76
2023-03-27T02:28:50.276Z,3.71
2023-03-27T02:31:36.351Z,3.64
2023-03-27T02:34:24.649Z,3.56
2023-03-27T02:37:09.233Z,3.46
2023-03-27T02:40:13.801Z,3.39
2023-03-27T02:42:57.891Z,3.32
2023-03-27T02:45:36.451Z,3.26
2023-03-27T02:48:27.439Z,3.20
2023-03-27T02:51:04.061Z,3.14
2023-03-27T02:53:38.874Z,3.10
2023-03-27T02:56:10.650Z,3.04
2023-03-27T02:58:50.481Z,2.99
2023-03-27T03:01:22.671Z,2.99
2023-03-27T03:04:11.899Z,2.96
2023-03-27T03:06:42.045Z,2.99
2023-03-27T03:09:10.502Z,3.05
2023-03-27T03:11:53.750Z,3.09
2023-03-27T03:14:38.102Z,3.18
2023-03-27T03:17:04.694Z,3.22
2023-03-27T03:19:31.308Z,3.27
2023-03-27T03:21:57.906Z,3.29
2023-03-27T03:24:24.477Z,3.30
2023-03-27T03:26:51.002Z,3.26
2023-03-27T03:29:19.245Z,3.20
2023-03-27T03:31:45.971Z,3.17
2023-03-27T03:34:18.424Z,3.12
2023-03-27T03:36:49.762Z,3.08
2023-03-27T03:39:18.326Z,3.01
2023-03-27T03:41:45.195Z,2.93
2023-03-27T03:44:11.775Z,2.88
2023-03-27T03:46:38.980Z,2.82
2023-03-27T03:49:05.985Z,2.77
2023-03-27T03:51:34.712Z,2.71
2023-03-27T03:54:01.628Z,2.67
2023-03-27T03:56:30.569Z,2.63
2023-03-27T03:58:57.795Z,2.58
2023-03-27T04:01:26.108Z,2.54
2023-03-27T04:03:53.194Z,2.49
2023-03-27T04:06:25.616Z,2.45
2023-03-27T04:08:53.084Z,2.42
2023-03-27T04:11:20.050Z,2.38
2023-03-27T04:13:46.653Z,2.36
2023-03-27T04:16:13.224Z,2.31
2023-03-27T04:18:41.332Z,2.28
2023-03-27T04:21:14.560Z,2.25
2023-03-27T04:23:42.728Z,2.23
2023-03-27T04:26:12.065Z,2.22
2023-03-27T04:28:39.927Z,2.20
2023-03-27T04:31:08.623Z,2.21
2023-03-27T04:33:46.443Z,2.19
2023-03-27T04:36:17.235Z,2.15
2023-03-27T04:38:44.378Z,2.11
2023-03-27T04:41:11.407Z,2.09
2023-03-27T04:43:40.042Z,2.04
2023-03-27T04:46:08.307Z,2.03
2023-03-27T04:48:38.326Z,1.99
2023-03-27T04:51:07.026Z,1.98
2023-03-27T04:53:36.075Z,1.94
2023-03-27T04:56:03.063Z,1.93
2023-03-27T04:58:29.652Z,1.96
2023-03-27T05:00:56.714Z,1.94
2023-03-27T05:03:24.066Z,1.95
2023-03-27T05:05:50.757Z,1.97
2023-03-27T05:08:18.222Z,1.97
2023-03-27T05:10:46.372Z,2.01
2023-03-27T05:13:13.014Z,2.01
2023-03-27T05:15:39.576Z,2.01
2023-03-27T05:18:07.207Z,1.99
2023-03-27T05:20:35.232Z,1.98
2023-03-27T05:23:02.363Z,1.99
2023-03-27T05:25:29.935Z,1.92
2023-03-27T05:27:56.557Z,1.93
2023-03-27T05:30:24.617Z,1.93
2023-03-27T05:32:53.198Z,1.94
2023-03-27T05:35:22.488Z,1.90
2023-03-27T05:37:52.624Z,1.88
2023-03-27T05:40:22.431Z,1.87
2023-03-27T05:42:51.105Z,1.84
2023-03-27T05:45:18.755Z,1.84
2023-03-27T05:47:56.713Z,1.80
2023-03-27T05:50:30.235Z,1.82
2023-03-27T05:52:58.845Z,1.78
2023-03-27T05:55:27.725Z,1.78
2023-03-27T05:57:55.312Z,1.77
2023-03-27T06:00:25.783Z,1.76
2023-03-27T06:02:57.393Z,1.77
2023-03-27T06:05:26.744Z,1.78
2023-03-27T06:07:53.688Z,1.79
2023-03-27T06:10:20.640Z,1.83
2023-03-27T06:12:48.972Z,1.85
2023-03-27T06:15:16.434Z,1.88
2023-03-27T06:17:46.671Z,1.94
2023-03-27T06:20:15.055Z,1.99
2023-03-27T06:22:45.663Z,2.03
2023-03-27T06:25:12.705Z,2.07
2023-03-27T06:27:42.481Z,2.18
2023-03-27T06:30:11.259Z,2.22
2023-03-27T06:32:46.424Z,2.29
2023-03-27T06:35:14.667Z,2.33
2023-03-27T06:37:42.888Z,2.35
2023-03-27T06:40:10.355Z,2.40
2023-03-27T06:42:38.410Z,2.45
2023-03-27T06:45:06.159Z,2.54
2023-03-27T06:47:36.355Z,2.65
2023-03-27T06:50:08.929Z,2.74
2023-03-27T06:52:49.027Z,2.82
2023-03-27T06:55:18.106Z,2.93
2023-03-27T06:57:47.262Z,3.01
2023-03-27T07:00:19.134Z,3.08
2023-03-27T07:02:54.393Z,3.15
2023-03-27T07:05:24.436Z,3.21
2023-03-27T07:07:51.241Z,3.26
2023-03-27T07:10:18.674Z,3.33
2023-03-27T07:12:58.011Z,3.40
2023-03-27T07:15:27.893Z,3.53
2023-03-27T07:17:56.745Z,3.72
2023-03-27T07:20:24.807Z,4.10
2023-03-27T07:22:51.393Z,4.50
2023-03-27T07:25:18.115Z,4.84
2023-03-27T07:27:47.124Z,5.33
2023-03-27T07:30:21.861Z,5.74
2023-03-27T07:32:48.675Z,6.21
2023-03-27T07:35:15.534Z,6.57
2023-03-27T07:37:42.792Z,6.89
2023-03-27T07:40:13.311Z,7.16
2023-03-27T07:42:46.002Z,7.39
2023-03-27T07:45:15.657Z,7.62
2023-03-27T07:47:43.431Z,8.02
2023-03-27T07:50:11.911Z,8.31
2023-03-27T07:52:40.575Z,8.59
2023-03-27T07:55:08.206Z,9.00
2023-03-27T07:57:58.050Z,9.28
2023-03-27T08:00:27.841Z,9.46
2023-03-27T08:03:07.547Z,9.73
2023-03-27T08:05:35.125Z,9.92
2023-03-27T08:08:02.017Z,10.24
2023-03-27T08:10:28.824Z,10.55
2023-03-27T08:12:55.596Z,10.76
2023-03-27T08:15:28.065Z,10.88
2023-03-27T08:17:56.748Z,11.04
2023-03-27T08:20:24.117Z,11.19
2023-03-27T08:22:56.358Z,11.15
2023-03-27T08:25:23.969Z,11.28
2023-03-27T08:27:50.785Z,11.50
2023-03-27T08:30:17.743Z,11.70
2023-03-27T08:32:47.880Z,11.84
2023-03-27T08:35:14.917Z,11.99
2023-03-27T08:38:19.999Z,12.13
2023-03-27T08:40:58.888Z,11.64
2023-03-27T08:43:30.735Z,11.67
2023-03-27T08:46:14.380Z,12.03
2023-03-27T08:48:53.012Z,12.27
2023-03-27T08:51:44.075Z,12.24
2023-03-27T08:54:22.266Z,12.43
2023-03-27T08:56:50.254Z,12.60
2023-03-27T08:59:21.946Z,12.22
2023-03-27T09:02:21.350Z,11.93
2023-03-27T09:05:18.129Z,11.33
2023-03-27T09:08:20.490Z,11.44
2023-03-27T09:11:21.669Z,11.84
2023-03-27T09:13:51.729Z,12.35
2023-03-27T09:16:49.138Z,12.59
2023-03-27T09:19:31.498Z,12.75
2023-03-27T09:22:07.896Z,13.09
2023-03-27T09:24:44.668Z,13.18
2023-03-27T09:27:33.883Z,12.21
2023-03-27T09:30:15.081Z,11.46
2023-03-27T09:32:43.709Z,10.66
2023-03-27T09:35:16.942Z,10.08
2023-03-27T09:37:44.173Z,9.60
2023-03-27T09:40:31.630Z,9.03
2023-03-27T09:43:08.880Z,8.55
2023-03-27T09:45:39.069Z,8.16
2023-03-27T09:48:43.520Z,7.93
2023-03-27T09:51:36.895Z,7.72
2023-03-27T09:54:03.837Z,7.72
2023-03-27T09:56:36.525Z,8.19
2023-03-27T09:59:10.498Z,8.87
2023-03-27T10:01:38.248Z,9.47
2023-03-27T10:04:15.305Z,10.12
2023-03-27T10:06:56.565Z,10.77
2023-03-27T10:09:37.846Z,11.33
2023-03-27T10:12:07.832Z,11.53
2023-03-27T10:14:42.965Z,12.03
2023-03-27T10:17:25.644Z,12.38
2023-03-27T10:20:01.581Z,12.60
2023-03-27T10:22:34.056Z,12.89
2023-03-27T10:25:04.713Z,13.07
2023-03-27T10:27:35.790Z,13.38
2023-03-27T10:30:02.965Z,13.08
2023-03-27T10:32:47.394Z,13.38
2023-03-27T10:35:29.020Z,13.63
2023-03-27T10:37:57.266Z,13.65
2023-03-27T10:40:32.432Z,13.56
2023-03-27T10:43:04.788Z,13.23
2023-03-27T10:45:43.851Z,12.78
2023-03-27T10:48:24.561Z,12.28
2023-03-27T10:50:59.033Z,11.79
2023-03-27T10:53:41.845Z,11.32
2023-03-27T10:56:26.809Z,11.03
2023-03-27T10:59:01.844Z,11.31
2023-03-27T11:01:34.569Z,11.78
2023-03-27T11:04:23.413Z,12.18
2023-03-27T11:06:57.232Z,12.46
2023-03-27T11:09:33.532Z,12.68
2023-03-27T11:12:08.037Z,12.48
2023-03-27T11:14:54.039Z,12.26
2023-03-27T11:17:49.558Z,12.48
2023-03-27T11:20:32.912Z,12.77
2023-03-27T11:23:08.649Z,12.99
2023-03-27T11:25:46.806Z,12.89
2023-03-27T11:28:25.072Z,12.85
2023-03-27T11:30:59.136Z,12.84
2023-03-27T11:34:15.350Z,12.35
2023-03-27T11:37:07.508Z,11.50
2023-03-27T11:39:54.847Z,10.89
2023-03-27T11:42:27.442Z,10.27
2023-03-27T11:44:55.858Z,9.90
2023-03-27T11:47:41.023Z,9.50
2023-03-27T11:50:23.359Z,9.32
2023-03-27T11:53:12.770Z,9.50
2023-03-27T11:55:45.106Z,9.83
2023-03-27T11:58:29.954Z,10.02
2023-03-27T12:01:12.638Z,10.16
2023-03-27T12:04:10.242Z,10.19
2023-03-27T12:07:08.228Z,10.40
2023-03-27T12:09:48.616Z,10.49
2023-03-27T12:12:45.781Z,10.54
2023-03-27T12:15:52.186Z,10.66
2023-03-27T12:18:54.416Z,10.69
2023-03-27T12:21:44.871Z,10.84
2023-03-27T12:24:32.905Z,10.53
2023-03-27T12:27:27.462Z,10.19
2023-03-27T12:30:18.795Z,9.81
2023-03-27T12:33:11.783Z,9.67
2023-03-27T12:35:47.016Z,9.56
2023-03-27T12:38:40.437Z,9.33
2023-03-27T12:41:13.080Z,9.28
2023-03-27T12:43:45.314Z,9.22
2023-03-27T12:46:23.755Z,9.32
2023-03-27T12:49:10.682Z,9.34
2023-03-27T12:51:57.441Z,9.38
2023-03-27T12:54:27.236Z,9.43
2023-03-27T12:56:59.908Z,9.42
2023-03-27T12:59:30.143Z,9.45
2023-03-27T13:02:08.787Z,9.50
2023-03-27T13:05:24.096Z,9.52
2023-03-27T13:08:29.571Z,9.56
2023-03-27T13:11:22.413Z,9.57
2023-03-27T13:14:32.522Z,9.58
2023-03-27T13:17:20.477Z,9.58
2023-03-27T13:19:49.756Z,9.59
2023-03-27T13:22:49.812Z,9.64
2023-03-27T13:25:50.263Z,9.68
2023-03-27T13:28:36.031Z,9.75
2023-03-27T13:31:05.742Z,9.53
2023-03-27T13:33:45.928Z,9.30
2023-03-27T13:36:17.715Z,9.28
2023-03-27T13:38:54.239Z,9.27
2023-03-27T13:41:48.556Z,9.15
2023-03-27T13:44:24.237Z,8.96
2023-03-27T13:47:15.374Z,8.87
2023-03-27T13:50:08.737Z,8.82
2023-03-27T13:53:03.046Z,8.73
2023-03-27T13:55:51.864Z,8.65
2023-03-27T13:58:48.750Z,8.66
2023-03-27T14:01:44.969Z,8.69
2023-03-27T14:04:36.568Z,8.75
2023-03-27T14:07:24.224Z,8.77
2023-03-27T14:10:04.827Z,8.84
2023-03-27T14:13:13.052Z,8.89
2023-03-27T14:15:50.993Z,8.96
2023-03-27T14:18:49.958Z,9.04
2023-03-27T14:21:35.514Z,9.24
2023-03-27T14:24:12.598Z,9.28
2023-03-27T14:26:45.689Z,9.28
2023-03-27T14:29:15.569Z,9.30
2023-03-27T14:31:44.411Z,9.24
2023-03-27T14:34:12.347Z,9.25
2023-03-27T14:36:42.486Z,9.19
2023-03-27T14:39:12.026Z,9.13
2023-03-27T14:41:48.867Z,8.93
2023-03-27T14:44:18.338Z,8.85
2023-03-27T14:46:49.235Z,8.81
2023-03-27T14:49:22.637Z,8.82
2023-03-27T14:51:55.110Z,8.87
2023-03-27T14:54:27.300Z,8.90
2023-03-27T14:56:58.882Z,8.96
2023-03-27T14:59:35.899Z,9.02
2023-03-27T15:02:26.618Z,9.09
2023-03-27T15:05:12.351Z,8.98
2023-03-27T15:07:39.163Z,8.90
2023-03-27T15:10:05.726Z,8.84
2023-03-27T15:12:34.179Z,8.80
2023-03-27T15:15:00.809Z,8.76
2023-03-27T15:17:30.663Z,8.75
2023-03-27T15:20:10.194Z,8.78
2023-03-27T15:22:44.116Z,8.75
2023-03-27T15:25:17.459Z,8.68
2023-03-27T15:27:56.032Z,8.61
2023-03-27T15:30:28.923Z,8.58
2023-03-27T15:33:02.023Z,8.53
2023-03-27T15:35:38.912Z,8.52
2023-03-27T15:38:11.579Z,8.41
2023-03-27T15:40:42.976Z,8.29
2023-03-27T15:43:12.404Z,8.21
2023-03-27T15:45:40.801Z,8.10
2023-03-27T15:48:23.115Z,8.07
2023-03-27T15:51:03.349Z,8.02
2023-03-27T15:53:45.126Z,7.98
2023-03-27T15:56:24.613Z,7.94
2023-03-27T15:59:10.807Z,7.94
2023-03-27T16:01:49.984Z,7.94
2023-03-27T16:04:19.669Z,7.97
2023-03-27T16:07:20.249Z,7.99
2023-03-27T16:10:02.797Z,8.01
2023-03-27T16:12:56.928Z,8.01
2023-03-27T16:15:41.139Z,8.01
2023-03-27T16:18:28.217Z,7.95
2023-03-27T16:21:08.209Z,7.86
2023-03-27T16:23:35.512Z,7.78
2023-03-27T16:26:04.489Z,7.72
2023-03-27T16:28:31.563Z,7.66
2023-03-27T16:30:58.356Z,7.63
2023-03-27T16:33:27.546Z,7.58
2023-03-27T16:35:56.519Z,7.53
2023-03-27T16:38:23.437Z,7.50
2023-03-27T16:40:50.348Z,7.46
2023-03-27T16:43:17.020Z,7.42
2023-03-27T16:45:44.811Z,7.41
2023-03-27T16:48:13.342Z,7.36
2023-03-27T16:50:40.609Z,7.31
2023-03-27T16:53:07.469Z,7.23
2023-03-27T16:55:34.092Z,7.18
2023-03-27T16:58:02.453Z,7.09
2023-03-27T17:00:29.039Z,7.07
2023-03-27T17:02:56.063Z,7.10
2023-03-27T17:05:22.767Z,7.06
2023-03-27T17:07:49.660Z,6.96
2023-03-27T17:10:16.876Z,6.94
2023-03-27T17:12:43.613Z,6.94
2023-03-27T17:15:10.731Z,6.96
2023-03-27T17:17:37.401Z,6.95
2023-03-27T17:20:06.277Z,6.86
2023-03-27T17:22:33.410Z,6.79
2023-03-27T17:25:02.254Z,6.74
2023-03-27T17:27:29.093Z,6.69
2023-03-27T17:29:56.250Z,6.59
2023-03-27T17:32:24.490Z,6.56
2023-03-27T17:34:52.092Z,6.55
2023-03-27T17:37:19.909Z,6.53
2023-03-27T17:39:46.504Z,6.56
2023-03-27T17:42:13.273Z,6.53
2023-03-27T17:44:41.411Z,6.47
2023-03-27T17:47:08.741Z,6.44
2023-03-27T17:49:35.962Z,6.36
2023-03-27T17:52:07.704Z,6.34
2023-03-27T17:54:34.943Z,6.31
2023-03-27T17:57:01.999Z,6.26
2023-03-27T17:59:30.937Z,6.24
2023-03-27T18:01:58.726Z,6.21
2023-03-27T18:04:26.087Z,6.18
2023-03-27T18:06:52.957Z,6.13
2023-03-27T18:09:19.700Z,6.11
2023-03-27T18:11:47.036Z,6.08
2023-03-27T18:14:13.784Z,6.09
2023-03-27T18:16:40.715Z,6.02
2023-03-27T18:19:08.716Z,5.99
2023-03-27T18:21:35.629Z,5.96
2023-03-27T18:24:02.250Z,5.89
2023-03-27T18:26:28.890Z,5.84
2023-03-27T18:28:55.641Z,5.78
2023-03-27T18:31:22.303Z,5.74
2023-03-27T18:33:49.047Z,5.73
2023-03-27T18:36:16.017Z,5.67
2023-03-27T18:38:42.883Z,5.59
2023-03-27T18:41:10.926Z,5.51
2023-03-27T18:43:37.959Z,5.49
2023-03-27T18:46:07.159Z,5.48
2023-03-27T18:48:35.053Z,5.44
2023-03-27T18:51:04.559Z,5.39
2023-03-27T18:53:31.878Z,5.36
2023-03-27T18:55:59.027Z,5.28
2023-03-27T18:58:27.845Z,5.24
2023-03-27T19:00:57.501Z,5.20
2023-03-27T19:03:30.547Z,5.12
2023-03-27T19:06:01.215Z,5.08
2023-03-27T19:08:27.892Z,5.02
2023-03-27T19:10:58.103Z,4.98
2023-03-27T19:13:28.923Z,4.91
2023-03-27T19:15:55.788Z,4.86
2023-03-27T19:18:22.377Z,4.87
2023-03-27T19:20:49.241Z,4.83
2023-03-27T19:23:17.363Z,4.79
2023-03-27T19:25:51.191Z,4.76
2023-03-27T19:28:18.057Z,4.76
2023-03-27T19:30:45.694Z,4.73
2023-03-27T19:33:12.786Z,4.67
2023-03-27T19:35:39.426Z,4.62
2023-03-27T19:38:06.722Z,4.58
2023-03-27T19:40:33.295Z,4.55
2023-03-27T19:42:59.893Z,4.50
2023-03-27T19:45:26.861Z,4.48
2023-03-27T19:47:53.670Z,4.47
2023-03-27T19:50:20.883Z,4.39
2023-03-27T19:52:57.260Z,4.38
2023-03-27T19:55:27.951Z,4.35
2023-03-27T19:57:55.009Z,4.33
2023-03-27T20:00:21.761Z,4.30
2023-03-27T20:02:48.444Z,4.25
2023-03-27T20:05:15.256Z,4.22
2023-03-27T20:07:41.958Z,4.18
2023-03-27T20:10:08.924Z,4.14
2023-03-27T20:12:35.863Z,4.11
2023-03-27T20:15:11.663Z,4.11
2023-03-27T20:17:41.104Z,4.09
2023-03-27T20:20:12.154Z,4.06
2023-03-27T20:22:46.285Z,4.00
2023-03-27T20:25:21.284Z,4.02
2023-03-27T20:27:47.916Z,4.00
2023-03-27T20:30:14.683Z,3.96
2023-03-27T20:32:42.242Z,3.97
2023-03-27T20:35:20.685Z,3.90
2023-03-27T20:37:56.220Z,3.88
2023-03-27T20:40:24.571Z,3.84
2023-03-27T20:43:03.436Z,3.78
2023-03-27T20:45:31.263Z,3.78
2023-03-27T20:48:02.993Z,3.75
2023-03-27T20:50:35.534Z,3.74
2023-03-27T20:53:04.103Z,3.71
2023-03-27T20:55:34.604Z,3.67
2023-03-27T20:58:09.946Z,3.65
2023-03-27T21:00:36.552Z,3.63
2023-03-27T21:03:03.528Z,3.60
2023-03-27T21:05:30.179Z,3.53
2023-03-27T21:07:57.010Z,3.50
2023-03-27T21:10:24.825Z,3.46
2023-03-27T21:12:52.877Z,3.44
2023-03-27T21:15:20.225Z,3.38
2023-03-27T21:17:46.965Z,3.35
2023-03-27T21:20:13.728Z,3.32
2023-03-27T21:22:40.300Z,3.30
2023-03-27T21:25:07.273Z,3.24
2023-03-27T21:27:33.864Z,3.23
2023-03-27T21:30:00.436Z,3.18
2023-03-27T21:32:27.310Z,3.12
2023-03-27T21:34:53.922Z,3.11
2023-03-27T21:37:20.812Z,3.08
2023-03-27T21:39:47.564Z,3.00
2023-03-27T21:42:14.206Z,2.97
2023-03-27T21:44:40.836Z,2.92
2023-03-27T21:47:07.437Z,2.89
2023-03-27T21:49:34.135Z,2.86
2023-03-27T21:52:00.740Z,2.83
2023-03-27T21:54:27.294Z,2.79
2023-03-27T21:56:53.887Z,2.74
2023-03-27T21:59:20.402Z,2.73
2023-03-27T22:01:47.194Z,2.69
2023-03-27T22:04:13.967Z,2.64
2023-03-27T22:06:40.628Z,2.59
2023-03-27T22:09:07.271Z,2.55
2023-03-27T22:11:33.776Z,2.52
2023-03-27T22:14:00.517Z,2.50
2023-03-27T22:16:27.178Z,2.47
2023-03-27T22:18:53.841Z,2.44
2023-03-27T22:21:27.194Z,2.40
2023-03-27T22:23:56.518Z,2.36
2023-03-27T22:26:27.641Z,2.36
2023-03-27T22:28:56.363Z,2.32
2023-03-27T22:31:24.241Z,2.30
2023-03-27T22:33:50.930Z,2.28
2023-03-27T22:36:18.985Z,2.25
2023-03-27T22:38:46.378Z,2.20
2023-03-27T22:41:14.591Z,2.21
2023-03-27T22:43:41.836Z,2.16
2023-03-27T22:46:12.714Z,2.18
2023-03-27T22:48:40.037Z,2.16
2023-03-27T22:51:07.528Z,2.10
2023-03-27T22:53:35.188Z,2.09
2023-03-27T22:56:03.287Z,2.08
2023-03-27T22:58:30.976Z,2.08
2023-03-27T23:00:57.612Z,2.07
2023-03-27T23:03:26.229Z,2.04
2023-03-27T23:05:53.427Z,2.03
2023-03-27T23:08:24.114Z,2.02
2023-03-27T23:10:57.003Z,2.01
2023-03-27T23:13:24.647Z,1.98
2023-03-27T23:15:54.089Z,1.95
2023-03-27T23:18:23.912Z,1.92
2023-03-27T23:21:11.970Z,1.91
2023-03-27T23:23:40.373Z,1.88
2023-03-27T23:26:08.105Z,1.87
2023-03-27T23:28:37.837Z,1.82
2023-03-27T23:31:07.613Z,1.82
2023-03-27T23:33:38.144Z,1.79
2023-03-27T23:36:13.731Z,1.75
2023-03-27T23:38:42.029Z,1.73
2023-03-27T23:41:10.972Z,1.71
2023-03-27T23:43:37.989Z,1.70
2023-03-27T23:46:08.444Z,1.70
2023-03-27T23:48:35.364Z,1.68
2023-03-27T23:51:02.349Z,1.70
2023-03-27T23:53:29.574Z,1.69
2023-03-27T23:55:58.561Z,1.68
2023-03-27T23:58:28.654Z,1.64
